sensor_id;sensor_type;location;lat;lon;timestamp;P1;durP1;ratioP1;P2;durP2;ratioP2
9214;SDS011;4642;51.364;6.788;2022-09-09T00:03:43;0.93;;;0.50;;
9214;SDS011;4642;51.364;6.788;2022-09-09T00:11:40;1.93;;;0.63;;
9214;SDS011;4642;51.364;6.788;2022-09-09T00:14:32;5.87;;;0.87;;
9214;SDS011;4642;51.364;6.788;2022-09-09T00:17:36;2.77;;;0.90;;
9214;SDS011;4642;51.364;6.788;2022-09-09T00:20:09;1.03;;;0.60;;
9214;SDS011;4642;51.364;6.788;2022-09-09T00:22:55;1.90;;;0.90;;
9214;SDS011;4642;51.364;6.788;2022-09-09T00:28:55;3.37;;;0.67;;
9214;SDS011;4642;51.364;6.788;2022-09-09T00:31:32;1.67;;;0.80;;
9214;SDS011;4642;51.364;6.788;2022-09-09T00:34:21;2.33;;;0.73;;
9214;SDS011;4642;51.364;6.788;2022-09-09T00:36:48;1.50;;;0.97;;
9214;SDS011;4642;51.364;6.788;2022-09-09T00:47:58;2.17;;;1.10;;
9214;SDS011;4642;51.364;6.788;2022-09-09T00:50:38;1.20;;;0.57;;
9214;SDS011;4642;51.364;6.788;2022-09-09T00:53:19;0.90;;;0.83;;
9214;SDS011;4642;51.364;6.788;2022-09-09T00:55:54;0.93;;;0.83;;
9214;SDS011;4642;51.364;6.788;2022-09-09T00:58:33;4.87;;;0.90;;
9214;SDS011;4642;51.364;6.788;2022-09-09T01:16:59;1.10;;;0.77;;
9214;SDS011;4642;51.364;6.788;2022-09-09T01:19:48;6.00;;;1.17;;
9214;SDS011;4642;51.364;6.788;2022-09-09T01:22:26;2.20;;;0.80;;
9214;SDS011;4642;51.364;6.788;2022-09-09T01:25:21;2.57;;;0.87;;
9214;SDS011;4642;51.364;6.788;2022-09-09T01:28:00;2.03;;;0.93;;
9214;SDS011;4642;51.364;6.788;2022-09-09T01:30:29;4.67;;;1.07;;
9214;SDS011;4642;51.364;6.788;2022-09-09T01:32:58;1.30;;;0.83;;
9214;SDS011;4642;51.364;6.788;2022-09-09T01:38:15;2.50;;;0.80;;
9214;SDS011;4642;51.364;6.788;2022-09-09T01:40:42;4.57;;;1.10;;
9214;SDS011;4642;51.364;6.788;2022-09-09T01:43:08;1.60;;;0.87;;
9214;SDS011;4642;51.364;6.788;2022-09-09T01:45:34;2.40;;;0.87;;
9214;SDS011;4642;51.364;6.788;2022-09-09T01:48:00;1.23;;;0.80;;
9214;SDS011;4642;51.364;6.788;2022-09-09T01:50:27;1.53;;;0.80;;
9214;SDS011;4642;51.364;6.788;2022-09-09T01:52:56;2.60;;;0.70;;
9214;SDS011;4642;51.364;6.788;2022-09-09T01:55:28;2.87;;;0.93;;
9214;SDS011;4642;51.364;6.788;2022-09-09T01:58:14;3.53;;;1.00;;
9214;SDS011;4642;51.364;6.788;2022-09-09T02:03:32;3.60;;;0.90;;
9214;SDS011;4642;51.364;6.788;2022-09-09T02:08:57;1.97;;;0.90;;
9214;SDS011;4642;51.364;6.788;2022-09-09T02:11:26;3.60;;;1.03;;
9214;SDS011;4642;51.364;6.788;2022-09-09T02:13:57;2.77;;;1.13;;
9214;SDS011;4642;51.364;6.788;2022-09-09T02:19:44;1.10;;;1.00;;
9214;SDS011;4642;51.364;6.788;2022-09-09T02:21:55;1.47;;;1.00;;
9214;SDS011;4642;51.364;6.788;2022-09-09T02:24:24;1.83;;;1.10;;
9214;SDS011;4642;51.364;6.788;2022-09-09T02:26:52;3.73;;;1.20;;
9214;SDS011;4642;51.364;6.788;2022-09-09T02:29:24;1.67;;;1.10;;
9214;SDS011;4642;51.364;6.788;2022-09-09T02:31:52;2.07;;;1.20;;
9214;SDS011;4642;51.364;6.788;2022-09-09T02:34:23;3.07;;;1.27;;
9214;SDS011;4642;51.364;6.788;2022-09-09T02:36:50;2.10;;;0.97;;
9214;SDS011;4642;51.364;6.788;2022-09-09T02:39:18;3.07;;;1.03;;
9214;SDS011;4642;51.364;6.788;2022-09-09T02:41:44;1.80;;;1.20;;
9214;SDS011;4642;51.364;6.788;2022-09-09T02:44:10;3.37;;;1.27;;
9214;SDS011;4642;51.364;6.788;2022-09-09T02:49:11;1.93;;;1.13;;
9214;SDS011;4642;51.364;6.788;2022-09-09T02:56:47;1.97;;;1.33;;
9214;SDS011;4642;51.364;6.788;2022-09-09T02:59:17;7.20;;;3.00;;
9214;SDS011;4642;51.364;6.788;2022-09-09T03:01:44;3.50;;;1.73;;
9214;SDS011;4642;51.364;6.788;2022-09-09T03:04:10;2.50;;;1.23;;
9214;SDS011;4642;51.364;6.788;2022-09-09T03:06:35;3.07;;;1.50;;
9214;SDS011;4642;51.364;6.788;2022-09-09T03:09:01;5.00;;;1.90;;
9214;SDS011;4642;51.364;6.788;2022-09-09T03:11:27;2.30;;;1.40;;
9214;SDS011;4642;51.364;6.788;2022-09-09T03:13:53;5.77;;;1.70;;
9214;SDS011;4642;51.364;6.788;2022-09-09T03:16:21;3.00;;;1.60;;
9214;SDS011;4642;51.364;6.788;2022-09-09T03:18:47;2.40;;;1.77;;
9214;SDS011;4642;51.364;6.788;2022-09-09T03:21:12;3.40;;;1.43;;
9214;SDS011;4642;51.364;6.788;2022-09-09T03:23:39;2.57;;;1.73;;
9214;SDS011;4642;51.364;6.788;2022-09-09T03:26:05;5.47;;;1.30;;
9214;SDS011;4642;51.364;6.788;2022-09-09T03:28:30;4.00;;;1.30;;
9214;SDS011;4642;51.364;6.788;2022-09-09T03:31:03;4.33;;;1.43;;
9214;SDS011;4642;51.364;6.788;2022-09-09T03:33:30;4.93;;;1.40;;
9214;SDS011;4642;51.364;6.788;2022-09-09T03:35:56;6.00;;;1.57;;
9214;SDS011;4642;51.364;6.788;2022-09-09T03:38:25;4.03;;;1.50;;
9214;SDS011;4642;51.364;6.788;2022-09-09T03:40:51;3.00;;;1.90;;
9214;SDS011;4642;51.364;6.788;2022-09-09T03:43:21;3.63;;;1.43;;
9214;SDS011;4642;51.364;6.788;2022-09-09T03:45:47;4.07;;;1.53;;
9214;SDS011;4642;51.364;6.788;2022-09-09T03:48:13;6.43;;;1.60;;
9214;SDS011;4642;51.364;6.788;2022-09-09T03:50:43;7.47;;;1.70;;
9214;SDS011;4642;51.364;6.788;2022-09-09T03:53:13;6.07;;;1.13;;
9214;SDS011;4642;51.364;6.788;2022-09-09T03:55:43;2.73;;;1.47;;
9214;SDS011;4642;51.364;6.788;2022-09-09T03:58:13;7.37;;;1.70;;
9214;SDS011;4642;51.364;6.788;2022-09-09T04:00:40;5.47;;;1.50;;
9214;SDS011;4642;51.364;6.788;2022-09-09T04:03:08;2.93;;;1.53;;
9214;SDS011;4642;51.364;6.788;2022-09-09T04:05:34;4.30;;;1.60;;
9214;SDS011;4642;51.364;6.788;2022-09-09T04:08:04;4.60;;;1.60;;
9214;SDS011;4642;51.364;6.788;2022-09-09T04:10:31;5.97;;;1.83;;
9214;SDS011;4642;51.364;6.788;2022-09-09T04:12:56;2.97;;;1.30;;
9214;SDS011;4642;51.364;6.788;2022-09-09T04:15:22;1.63;;;1.10;;
9214;SDS011;4642;51.364;6.788;2022-09-09T04:17:47;3.07;;;1.20;;
9214;SDS011;4642;51.364;6.788;2022-09-09T04:20:13;3.93;;;1.83;;
9214;SDS011;4642;51.364;6.788;2022-09-09T04:22:38;3.37;;;1.40;;
9214;SDS011;4642;51.364;6.788;2022-09-09T04:25:07;5.57;;;1.50;;
9214;SDS011;4642;51.364;6.788;2022-09-09T04:27:33;3.03;;;1.50;;
9214;SDS011;4642;51.364;6.788;2022-09-09T04:29:58;4.43;;;1.13;;
9214;SDS011;4642;51.364;6.788;2022-09-09T04:32:24;5.00;;;1.57;;
9214;SDS011;4642;51.364;6.788;2022-09-09T04:34:52;9.20;;;1.77;;
9214;SDS011;4642;51.364;6.788;2022-09-09T04:37:17;1.33;;;1.13;;
9214;SDS011;4642;51.364;6.788;2022-09-09T04:39:43;1.93;;;1.27;;
9214;SDS011;4642;51.364;6.788;2022-09-09T04:42:09;5.83;;;1.50;;
9214;SDS011;4642;51.364;6.788;2022-09-09T04:44:35;3.27;;;1.40;;
9214;SDS011;4642;51.364;6.788;2022-09-09T04:47:01;2.97;;;1.20;;
9214;SDS011;4642;51.364;6.788;2022-09-09T04:49:26;3.67;;;1.40;;
9214;SDS011;4642;51.364;6.788;2022-09-09T04:51:52;4.00;;;1.40;;
9214;SDS011;4642;51.364;6.788;2022-09-09T04:54:17;3.73;;;1.57;;
9214;SDS011;4642;51.364;6.788;2022-09-09T04:56:43;4.87;;;1.30;;
9214;SDS011;4642;51.364;6.788;2022-09-09T04:59:09;3.10;;;1.40;;
9214;SDS011;4642;51.364;6.788;2022-09-09T05:01:35;5.10;;;1.57;;
9214;SDS011;4642;51.364;6.788;2022-09-09T05:04:01;5.60;;;1.70;;
9214;SDS011;4642;51.364;6.788;2022-09-09T05:06:27;1.80;;;1.30;;
9214;SDS011;4642;51.364;6.788;2022-09-09T05:08:54;3.87;;;1.47;;
9214;SDS011;4642;51.364;6.788;2022-09-09T05:11:21;2.03;;;1.20;;
9214;SDS011;4642;51.364;6.788;2022-09-09T05:13:49;5.73;;;1.70;;
9214;SDS011;4642;51.364;6.788;2022-09-09T05:16:15;4.00;;;1.60;;
9214;SDS011;4642;51.364;6.788;2022-09-09T05:18:42;5.30;;;1.27;;
9214;SDS011;4642;51.364;6.788;2022-09-09T05:21:08;3.07;;;1.90;;
9214;SDS011;4642;51.364;6.788;2022-09-09T05:23:35;4.00;;;1.80;;
9214;SDS011;4642;51.364;6.788;2022-09-09T05:26:01;4.80;;;1.57;;
9214;SDS011;4642;51.364;6.788;2022-09-09T05:28:28;5.10;;;1.60;;
9214;SDS011;4642;51.364;6.788;2022-09-09T05:31:02;4.70;;;1.60;;
9214;SDS011;4642;51.364;6.788;2022-09-09T05:33:30;5.00;;;1.60;;
9214;SDS011;4642;51.364;6.788;2022-09-09T05:36:00;4.23;;;1.93;;
9214;SDS011;4642;51.364;6.788;2022-09-09T05:38:28;4.37;;;1.70;;
9214;SDS011;4642;51.364;6.788;2022-09-09T05:40:55;5.03;;;1.80;;
9214;SDS011;4642;51.364;6.788;2022-09-09T05:43:21;5.93;;;1.47;;
9214;SDS011;4642;51.364;6.788;2022-09-09T05:45:47;6.17;;;1.93;;
9214;SDS011;4642;51.364;6.788;2022-09-09T05:48:17;7.30;;;1.87;;
9214;SDS011;4642;51.364;6.788;2022-09-09T05:50:42;3.77;;;1.50;;
9214;SDS011;4642;51.364;6.788;2022-09-09T05:53:19;2.80;;;1.50;;
9214;SDS011;4642;51.364;6.788;2022-09-09T05:55:45;2.83;;;1.50;;
9214;SDS011;4642;51.364;6.788;2022-09-09T05:58:11;2.80;;;1.47;;
9214;SDS011;4642;51.364;6.788;2022-09-09T06:00:37;5.83;;;1.77;;
9214;SDS011;4642;51.364;6.788;2022-09-09T06:03:03;3.47;;;1.63;;
9214;SDS011;4642;51.364;6.788;2022-09-09T06:05:28;7.37;;;1.50;;
9214;SDS011;4642;51.364;6.788;2022-09-09T06:07:55;5.00;;;1.73;;
9214;SDS011;4642;51.364;6.788;2022-09-09T06:10:21;8.50;;;1.97;;
9214;SDS011;4642;51.364;6.788;2022-09-09T06:12:47;3.40;;;1.50;;
9214;SDS011;4642;51.364;6.788;2022-09-09T06:15:12;4.70;;;1.80;;
9214;SDS011;4642;51.364;6.788;2022-09-09T06:17:38;3.50;;;1.40;;
9214;SDS011;4642;51.364;6.788;2022-09-09T06:20:03;2.30;;;1.30;;
9214;SDS011;4642;51.364;6.788;2022-09-09T06:22:29;7.13;;;1.70;;
9214;SDS011;4642;51.364;6.788;2022-09-09T06:24:55;5.07;;;1.83;;
9214;SDS011;4642;51.364;6.788;2022-09-09T06:29:50;4.40;;;1.80;;
9214;SDS011;4642;51.364;6.788;2022-09-09T06:32:15;5.20;;;1.77;;
9214;SDS011;4642;51.364;6.788;2022-09-09T06:34:41;7.10;;;2.07;;
9214;SDS011;4642;51.364;6.788;2022-09-09T06:37:06;5.57;;;1.83;;
9214;SDS011;4642;51.364;6.788;2022-09-09T06:39:33;3.93;;;1.90;;
9214;SDS011;4642;51.364;6.788;2022-09-09T06:41:59;5.73;;;2.00;;
9214;SDS011;4642;51.364;6.788;2022-09-09T06:44:24;8.13;;;2.97;;
9214;SDS011;4642;51.364;6.788;2022-09-09T06:46:51;7.10;;;2.13;;
9214;SDS011;4642;51.364;6.788;2022-09-09T06:49:17;5.27;;;2.07;;
9214;SDS011;4642;51.364;6.788;2022-09-09T06:51:43;9.70;;;2.40;;
9214;SDS011;4642;51.364;6.788;2022-09-09T06:54:09;11.47;;;2.53;;
9214;SDS011;4642;51.364;6.788;2022-09-09T06:56:37;7.27;;;1.97;;
9214;SDS011;4642;51.364;6.788;2022-09-09T06:59:07;5.60;;;1.60;;
9214;SDS011;4642;51.364;6.788;2022-09-09T07:01:41;5.00;;;1.60;;
9214;SDS011;4642;51.364;6.788;2022-09-09T07:04:11;9.00;;;2.40;;
9214;SDS011;4642;51.364;6.788;2022-09-09T07:06:39;7.03;;;1.63;;
9214;SDS011;4642;51.364;6.788;2022-09-09T07:09:08;4.77;;;1.70;;
9214;SDS011;4642;51.364;6.788;2022-09-09T07:14:04;5.40;;;1.53;;
9214;SDS011;4642;51.364;6.788;2022-09-09T07:16:29;6.00;;;1.60;;
9214;SDS011;4642;51.364;6.788;2022-09-09T07:18:58;6.77;;;1.47;;
9214;SDS011;4642;51.364;6.788;2022-09-09T07:21:24;5.03;;;1.50;;
9214;SDS011;4642;51.364;6.788;2022-09-09T07:23:54;8.50;;;1.63;;
9214;SDS011;4642;51.364;6.788;2022-09-09T07:26:21;7.17;;;1.47;;
9214;SDS011;4642;51.364;6.788;2022-09-09T07:28:49;8.97;;;1.37;;
9214;SDS011;4642;51.364;6.788;2022-09-09T07:31:16;4.37;;;1.30;;
9214;SDS011;4642;51.364;6.788;2022-09-09T07:33:46;5.47;;;1.30;;
9214;SDS011;4642;51.364;6.788;2022-09-09T07:36:14;6.40;;;1.70;;
9214;SDS011;4642;51.364;6.788;2022-09-09T07:38:42;4.47;;;1.53;;
9214;SDS011;4642;51.364;6.788;2022-09-09T07:41:11;7.67;;;1.43;;
9214;SDS011;4642;51.364;6.788;2022-09-09T07:43:41;4.40;;;0.97;;
9214;SDS011;4642;51.364;6.788;2022-09-09T07:46:08;9.00;;;1.47;;
9214;SDS011;4642;51.364;6.788;2022-09-09T07:48:35;5.43;;;1.53;;
9214;SDS011;4642;51.364;6.788;2022-09-09T07:51:05;5.77;;;1.40;;
9214;SDS011;4642;51.364;6.788;2022-09-09T07:53:36;5.10;;;1.13;;
9214;SDS011;4642;51.364;6.788;2022-09-09T07:56:07;5.60;;;1.27;;
9214;SDS011;4642;51.364;6.788;2022-09-09T07:58:35;7.77;;;1.40;;
9214;SDS011;4642;51.364;6.788;2022-09-09T08:01:09;6.63;;;1.23;;
9214;SDS011;4642;51.364;6.788;2022-09-09T08:03:36;6.90;;;1.07;;
9214;SDS011;4642;51.364;6.788;2022-09-09T08:06:03;8.27;;;1.50;;
9214;SDS011;4642;51.364;6.788;2022-09-09T08:08:31;8.43;;;2.17;;
9214;SDS011;4642;51.364;6.788;2022-09-09T08:11:04;6.93;;;1.37;;
9214;SDS011;4642;51.364;6.788;2022-09-09T08:13:32;7.23;;;1.27;;
9214;SDS011;4642;51.364;6.788;2022-09-09T08:16:03;4.47;;;1.20;;
9214;SDS011;4642;51.364;6.788;2022-09-09T08:18:39;5.47;;;1.07;;
9214;SDS011;4642;51.364;6.788;2022-09-09T08:21:09;2.60;;;1.13;;
9214;SDS011;4642;51.364;6.788;2022-09-09T08:23:37;7.77;;;1.13;;
9214;SDS011;4642;51.364;6.788;2022-09-09T08:26:10;5.87;;;1.17;;
9214;SDS011;4642;51.364;6.788;2022-09-09T08:28:38;2.17;;;0.90;;
9214;SDS011;4642;51.364;6.788;2022-09-09T08:31:09;2.63;;;1.00;;
9214;SDS011;4642;51.364;6.788;2022-09-09T08:33:40;6.93;;;1.20;;
9214;SDS011;4642;51.364;6.788;2022-09-09T08:36:08;3.57;;;1.20;;
9214;SDS011;4642;51.364;6.788;2022-09-09T08:38:35;4.60;;;0.80;;
9214;SDS011;4642;51.364;6.788;2022-09-09T08:41:23;6.73;;;1.13;;
9214;SDS011;4642;51.364;6.788;2022-09-09T08:52:51;6.67;;;1.03;;
9214;SDS011;4642;51.364;6.788;2022-09-09T08:55:49;5.37;;;1.20;;
9214;SDS011;4642;51.364;6.788;2022-09-09T08:58:31;4.70;;;1.10;;
9214;SDS011;4642;51.364;6.788;2022-09-09T09:03:48;1.60;;;0.97;;
9214;SDS011;4642;51.364;6.788;2022-09-09T09:06:30;4.70;;;1.17;;
9214;SDS011;4642;51.364;6.788;2022-09-09T09:09:14;3.70;;;1.10;;
9214;SDS011;4642;51.364;6.788;2022-09-09T09:11:54;1.63;;;0.70;;
9214;SDS011;4642;51.364;6.788;2022-09-09T09:14:26;6.73;;;1.47;;
9214;SDS011;4642;51.364;6.788;2022-09-09T09:17:00;1.63;;;0.80;;
9214;SDS011;4642;51.364;6.788;2022-09-09T09:19:29;4.80;;;1.00;;
9214;SDS011;4642;51.364;6.788;2022-09-09T09:22:11;4.53;;;0.80;;
9214;SDS011;4642;51.364;6.788;2022-09-09T09:25:02;5.43;;;1.47;;
9214;SDS011;4642;51.364;6.788;2022-09-09T09:30:24;4.57;;;1.00;;
9214;SDS011;4642;51.364;6.788;2022-09-09T09:32:53;6.13;;;1.40;;
9214;SDS011;4642;51.364;6.788;2022-09-09T09:35:23;9.07;;;1.23;;
9214;SDS011;4642;51.364;6.788;2022-09-09T09:37:49;2.43;;;1.00;;
9214;SDS011;4642;51.364;6.788;2022-09-09T09:40:17;3.83;;;0.77;;
9214;SDS011;4642;51.364;6.788;2022-09-09T09:42:56;3.43;;;1.07;;
9214;SDS011;4642;51.364;6.788;2022-09-09T09:48:03;2.07;;;0.77;;
9214;SDS011;4642;51.364;6.788;2022-09-09T09:50:30;2.73;;;1.10;;
9214;SDS011;4642;51.364;6.788;2022-09-09T09:52:58;3.07;;;1.10;;
9214;SDS011;4642;51.364;6.788;2022-09-09T09:55:25;1.50;;;0.60;;
9214;SDS011;4642;51.364;6.788;2022-09-09T09:57:59;3.20;;;1.10;;
9214;SDS011;4642;51.364;6.788;2022-09-09T10:00:29;2.60;;;0.93;;
9214;SDS011;4642;51.364;6.788;2022-09-09T10:02:55;2.33;;;0.60;;
9214;SDS011;4642;51.364;6.788;2022-09-09T10:05:28;1.37;;;0.80;;
9214;SDS011;4642;51.364;6.788;2022-09-09T10:10:33;3.93;;;0.93;;
9214;SDS011;4642;51.364;6.788;2022-09-09T10:13:20;4.77;;;1.23;;
9214;SDS011;4642;51.364;6.788;2022-09-09T10:16:01;2.10;;;0.67;;
9214;SDS011;4642;51.364;6.788;2022-09-09T10:18:43;3.23;;;0.70;;
9214;SDS011;4642;51.364;6.788;2022-09-09T10:21:18;4.80;;;1.10;;
9214;SDS011;4642;51.364;6.788;2022-09-09T10:29:13;2.33;;;0.80;;
9214;SDS011;4642;51.364;6.788;2022-09-09T10:37:18;2.53;;;0.93;;
9214;SDS011;4642;51.364;6.788;2022-09-09T10:40:28;3.90;;;0.93;;
9214;SDS011;4642;51.364;6.788;2022-09-09T10:49:04;7.80;;;0.80;;
9214;SDS011;4642;51.364;6.788;2022-09-09T10:54:16;3.67;;;0.93;;
9214;SDS011;4642;51.364;6.788;2022-09-09T10:56:58;3.73;;;0.83;;
9214;SDS011;4642;51.364;6.788;2022-09-09T10:59:30;3.07;;;1.07;;
9214;SDS011;4642;51.364;6.788;2022-09-09T11:02:13;5.33;;;1.50;;
9214;SDS011;4642;51.364;6.788;2022-09-09T11:04:54;5.70;;;0.90;;
9214;SDS011;4642;51.364;6.788;2022-09-09T11:07:33;4.57;;;0.80;;
9214;SDS011;4642;51.364;6.788;2022-09-09T11:10:04;4.20;;;1.03;;
9214;SDS011;4642;51.364;6.788;2022-09-09T11:12:41;1.73;;;0.70;;
9214;SDS011;4642;51.364;6.788;2022-09-09T11:15:14;1.97;;;0.83;;
9214;SDS011;4642;51.364;6.788;2022-09-09T11:17:56;1.33;;;0.63;;
9214;SDS011;4642;51.364;6.788;2022-09-09T11:20:23;2.10;;;0.70;;
9214;SDS011;4642;51.364;6.788;2022-09-09T11:25:23;1.50;;;0.80;;
9214;SDS011;4642;51.364;6.788;2022-09-09T11:30:39;2.77;;;0.73;;
9214;SDS011;4642;51.364;6.788;2022-09-09T11:39:34;2.07;;;0.60;;
9214;SDS011;4642;51.364;6.788;2022-09-09T11:44:44;0.97;;;0.70;;
9214;SDS011;4642;51.364;6.788;2022-09-09T11:47:26;2.70;;;0.67;;
9214;SDS011;4642;51.364;6.788;2022-09-09T11:52:42;1.30;;;0.60;;
9214;SDS011;4642;51.364;6.788;2022-09-09T11:55:19;1.87;;;0.63;;
9214;SDS011;4642;51.364;6.788;2022-09-09T11:58:04;1.23;;;0.73;;
9214;SDS011;4642;51.364;6.788;2022-09-09T12:00:35;2.63;;;0.87;;
9214;SDS011;4642;51.364;6.788;2022-09-09T12:03:03;0.90;;;0.60;;
9214;SDS011;4642;51.364;6.788;2022-09-09T12:05:36;0.97;;;0.50;;
9214;SDS011;4642;51.364;6.788;2022-09-09T12:08:04;1.63;;;0.60;;
9214;SDS011;4642;51.364;6.788;2022-09-09T12:10:32;1.20;;;0.60;;
9214;SDS011;4642;51.364;6.788;2022-09-09T12:13:20;4.13;;;0.60;;
9214;SDS011;4642;51.364;6.788;2022-09-09T12:15:49;0.60;;;0.40;;
9214;SDS011;4642;51.364;6.788;2022-09-09T12:18:32;2.20;;;0.70;;
9214;SDS011;4642;51.364;6.788;2022-09-09T12:21:04;3.30;;;0.73;;
9214;SDS011;4642;51.364;6.788;2022-09-09T12:23:37;3.80;;;0.80;;
9214;SDS011;4642;51.364;6.788;2022-09-09T12:26:26;2.47;;;0.80;;
9214;SDS011;4642;51.364;6.788;2022-09-09T12:32:01;2.67;;;0.60;;
9214;SDS011;4642;51.364;6.788;2022-09-09T12:40:26;2.00;;;0.87;;
9214;SDS011;4642;51.364;6.788;2022-09-09T12:42:59;2.57;;;0.60;;
9214;SDS011;4642;51.364;6.788;2022-09-09T12:45:26;5.67;;;1.27;;
9214;SDS011;4642;51.364;6.788;2022-09-09T12:47:58;2.00;;;0.63;;
9214;SDS011;4642;51.364;6.788;2022-09-09T12:50:28;1.53;;;0.60;;
9214;SDS011;4642;51.364;6.788;2022-09-09T12:52:56;3.23;;;0.70;;
9214;SDS011;4642;51.364;6.788;2022-09-09T12:55:25;2.57;;;0.80;;
9214;SDS011;4642;51.364;6.788;2022-09-09T12:57:55;2.90;;;1.03;;
9214;SDS011;4642;51.364;6.788;2022-09-09T13:00:22;2.60;;;0.90;;
9214;SDS011;4642;51.364;6.788;2022-09-09T13:02:53;2.83;;;0.90;;
9214;SDS011;4642;51.364;6.788;2022-09-09T13:05:28;2.13;;;0.63;;
9214;SDS011;4642;51.364;6.788;2022-09-09T13:08:05;3.70;;;1.00;;
9214;SDS011;4642;51.364;6.788;2022-09-09T13:10:35;2.73;;;0.87;;
9214;SDS011;4642;51.364;6.788;2022-09-09T13:13:13;4.70;;;1.20;;
9214;SDS011;4642;51.364;6.788;2022-09-09T13:15:51;4.73;;;1.10;;
9214;SDS011;4642;51.364;6.788;2022-09-09T13:18:23;2.07;;;0.60;;
9214;SDS011;4642;51.364;6.788;2022-09-09T13:20:54;2.07;;;0.80;;
9214;SDS011;4642;51.364;6.788;2022-09-09T13:23:22;1.80;;;0.73;;
9214;SDS011;4642;51.364;6.788;2022-09-09T13:25:53;2.67;;;0.90;;
9214;SDS011;4642;51.364;6.788;2022-09-09T13:28:20;1.77;;;0.70;;
9214;SDS011;4642;51.364;6.788;2022-09-09T13:30:55;2.53;;;0.77;;
9214;SDS011;4642;51.364;6.788;2022-09-09T13:33:28;2.53;;;0.80;;
9214;SDS011;4642;51.364;6.788;2022-09-09T13:35:59;3.17;;;0.93;;
9214;SDS011;4642;51.364;6.788;2022-09-09T13:38:38;2.93;;;0.70;;
9214;SDS011;4642;51.364;6.788;2022-09-09T13:41:19;1.33;;;0.60;;
9214;SDS011;4642;51.364;6.788;2022-09-09T13:43:46;2.77;;;0.60;;
9214;SDS011;4642;51.364;6.788;2022-09-09T13:46:23;2.23;;;0.80;;
9214;SDS011;4642;51.364;6.788;2022-09-09T13:48:55;2.37;;;0.97;;
9214;SDS011;4642;51.364;6.788;2022-09-09T13:51:30;3.53;;;1.00;;
9214;SDS011;4642;51.364;6.788;2022-09-09T13:54:00;1.13;;;0.70;;
9214;SDS011;4642;51.364;6.788;2022-09-09T13:56:26;2.07;;;0.67;;
9214;SDS011;4642;51.364;6.788;2022-09-09T13:58:51;3.47;;;0.93;;
9214;SDS011;4642;51.364;6.788;2022-09-09T14:01:17;4.63;;;0.87;;
9214;SDS011;4642;51.364;6.788;2022-09-09T14:03:42;1.87;;;0.70;;
9214;SDS011;4642;51.364;6.788;2022-09-09T14:06:09;2.43;;;0.93;;
9214;SDS011;4642;51.364;6.788;2022-09-09T14:08:35;5.57;;;0.93;;
9214;SDS011;4642;51.364;6.788;2022-09-09T14:11:02;3.03;;;0.90;;
9214;SDS011;4642;51.364;6.788;2022-09-09T14:13:28;2.20;;;0.70;;
9214;SDS011;4642;51.364;6.788;2022-09-09T14:15:54;1.83;;;0.87;;
9214;SDS011;4642;51.364;6.788;2022-09-09T14:18:19;1.60;;;0.80;;
9214;SDS011;4642;51.364;6.788;2022-09-09T14:20:47;1.57;;;0.63;;
9214;SDS011;4642;51.364;6.788;2022-09-09T14:23:13;2.70;;;0.50;;
9214;SDS011;4642;51.364;6.788;2022-09-09T14:25:39;2.87;;;0.87;;
9214;SDS011;4642;51.364;6.788;2022-09-09T14:28:07;1.77;;;0.40;;
9214;SDS011;4642;51.364;6.788;2022-09-09T14:30:34;2.30;;;0.80;;
9214;SDS011;4642;51.364;6.788;2022-09-09T14:33:00;3.33;;;0.83;;
9214;SDS011;4642;51.364;6.788;2022-09-09T14:35:25;1.60;;;0.53;;
9214;SDS011;4642;51.364;6.788;2022-09-09T14:37:51;1.63;;;0.60;;
9214;SDS011;4642;51.364;6.788;2022-09-09T14:40:16;1.20;;;0.40;;
9214;SDS011;4642;51.364;6.788;2022-09-09T14:42:42;0.77;;;0.47;;
9214;SDS011;4642;51.364;6.788;2022-09-09T14:45:07;1.90;;;0.30;;
9214;SDS011;4642;51.364;6.788;2022-09-09T14:47:34;0.60;;;0.30;;
9214;SDS011;4642;51.364;6.788;2022-09-09T14:50:00;1.93;;;0.50;;
9214;SDS011;4642;51.364;6.788;2022-09-09T14:52:27;2.10;;;0.57;;
9214;SDS011;4642;51.364;6.788;2022-09-09T14:54:54;2.00;;;0.73;;
9214;SDS011;4642;51.364;6.788;2022-09-09T14:57:20;5.53;;;0.90;;
9214;SDS011;4642;51.364;6.788;2022-09-09T14:59:45;1.77;;;0.63;;
9214;SDS011;4642;51.364;6.788;2022-09-09T15:02:11;0.97;;;0.50;;
9214;SDS011;4642;51.364;6.788;2022-09-09T15:04:38;1.13;;;0.43;;
9214;SDS011;4642;51.364;6.788;2022-09-09T15:07:03;1.40;;;0.60;;
9214;SDS011;4642;51.364;6.788;2022-09-09T15:09:29;1.53;;;0.60;;
9214;SDS011;4642;51.364;6.788;2022-09-09T15:11:54;0.63;;;0.33;;
9214;SDS011;4642;51.364;6.788;2022-09-09T15:14:20;1.27;;;0.50;;
9214;SDS011;4642;51.364;6.788;2022-09-09T15:16:46;1.27;;;0.50;;
9214;SDS011;4642;51.364;6.788;2022-09-09T15:19:11;3.93;;;0.50;;
9214;SDS011;4642;51.364;6.788;2022-09-09T15:21:37;0.37;;;0.30;;
9214;SDS011;4642;51.364;6.788;2022-09-09T15:24:03;1.70;;;0.47;;
9214;SDS011;4642;51.364;6.788;2022-09-09T15:26:30;2.83;;;0.90;;
9214;SDS011;4642;51.364;6.788;2022-09-09T15:28:55;0.50;;;0.40;;
9214;SDS011;4642;51.364;6.788;2022-09-09T15:31:25;0.83;;;0.40;;
9214;SDS011;4642;51.364;6.788;2022-09-09T15:34:26;0.93;;;0.30;;
9214;SDS011;4642;51.364;6.788;2022-09-09T15:36:45;1.60;;;0.50;;
9214;SDS011;4642;51.364;6.788;2022-09-09T15:39:12;1.40;;;0.50;;
9214;SDS011;4642;51.364;6.788;2022-09-09T15:41:40;1.27;;;0.70;;
9214;SDS011;4642;51.364;6.788;2022-09-09T15:44:10;2.93;;;0.57;;
9214;SDS011;4642;51.364;6.788;2022-09-09T15:46:43;0.70;;;0.43;;
9214;SDS011;4642;51.364;6.788;2022-09-09T15:49:16;0.83;;;0.40;;
9214;SDS011;4642;51.364;6.788;2022-09-09T15:51:57;1.97;;;0.40;;
9214;SDS011;4642;51.364;6.788;2022-09-09T15:54:27;2.33;;;0.50;;
9214;SDS011;4642;51.364;6.788;2022-09-09T15:56:56;1.27;;;0.43;;
9214;SDS011;4642;51.364;6.788;2022-09-09T15:59:23;1.20;;;0.70;;
9214;SDS011;4642;51.364;6.788;2022-09-09T16:01:50;0.77;;;0.50;;
9214;SDS011;4642;51.364;6.788;2022-09-09T16:04:19;1.17;;;0.40;;
9214;SDS011;4642;51.364;6.788;2022-09-09T16:06:49;1.23;;;0.60;;
9214;SDS011;4642;51.364;6.788;2022-09-09T16:09:25;1.20;;;0.70;;
9214;SDS011;4642;51.364;6.788;2022-09-09T16:11:52;0.80;;;0.50;;
9214;SDS011;4642;51.364;6.788;2022-09-09T16:14:18;1.63;;;0.63;;
9214;SDS011;4642;51.364;6.788;2022-09-09T16:16:44;1.40;;;0.70;;
9214;SDS011;4642;51.364;6.788;2022-09-09T16:19:11;1.47;;;0.50;;
9214;SDS011;4642;51.364;6.788;2022-09-09T16:21:39;1.00;;;0.40;;
9214;SDS011;4642;51.364;6.788;2022-09-09T16:24:10;1.50;;;0.70;;
9214;SDS011;4642;51.364;6.788;2022-09-09T16:26:39;1.97;;;0.63;;
9214;SDS011;4642;51.364;6.788;2022-09-09T16:29:06;2.03;;;0.90;;
9214;SDS011;4642;51.364;6.788;2022-09-09T16:31:31;0.97;;;0.73;;
9214;SDS011;4642;51.364;6.788;2022-09-09T16:33:57;1.60;;;0.70;;
9214;SDS011;4642;51.364;6.788;2022-09-09T16:36:27;1.50;;;0.70;;
9214;SDS011;4642;51.364;6.788;2022-09-09T16:38:58;1.17;;;0.73;;
9214;SDS011;4642;51.364;6.788;2022-09-09T16:41:26;2.80;;;0.90;;
9214;SDS011;4642;51.364;6.788;2022-09-09T16:43:54;2.17;;;0.80;;
9214;SDS011;4642;51.364;6.788;2022-09-09T16:46:26;4.30;;;1.00;;
9214;SDS011;4642;51.364;6.788;2022-09-09T16:48:53;1.43;;;1.00;;
9214;SDS011;4642;51.364;6.788;2022-09-09T16:51:21;4.03;;;1.17;;
9214;SDS011;4642;51.364;6.788;2022-09-09T16:53:48;3.97;;;1.20;;
9214;SDS011;4642;51.364;6.788;2022-09-09T16:56:16;6.63;;;1.50;;
9214;SDS011;4642;51.364;6.788;2022-09-09T16:58:53;6.50;;;1.67;;
9214;SDS011;4642;51.364;6.788;2022-09-09T17:01:20;2.57;;;1.23;;
9214;SDS011;4642;51.364;6.788;2022-09-09T17:03:46;2.83;;;1.03;;
9214;SDS011;4642;51.364;6.788;2022-09-09T17:06:13;1.70;;;0.90;;
9214;SDS011;4642;51.364;6.788;2022-09-09T17:08:40;2.77;;;1.17;;
9214;SDS011;4642;51.364;6.788;2022-09-09T17:11:16;2.43;;;0.90;;
9214;SDS011;4642;51.364;6.788;2022-09-09T17:13:43;3.03;;;0.90;;
9214;SDS011;4642;51.364;6.788;2022-09-09T17:16:10;1.67;;;1.07;;
9214;SDS011;4642;51.364;6.788;2022-09-09T17:18:37;2.73;;;0.90;;
9214;SDS011;4642;51.364;6.788;2022-09-09T17:21:07;2.67;;;1.43;;
9214;SDS011;4642;51.364;6.788;2022-09-09T17:23:38;1.23;;;0.87;;
9214;SDS011;4642;51.364;6.788;2022-09-09T17:26:08;1.50;;;0.60;;
9214;SDS011;4642;51.364;6.788;2022-09-09T17:28:35;4.07;;;1.00;;
9214;SDS011;4642;51.364;6.788;2022-09-09T17:31:03;2.23;;;0.77;;
9214;SDS011;4642;51.364;6.788;2022-09-09T17:33:31;0.83;;;0.80;;
9214;SDS011;4642;51.364;6.788;2022-09-09T17:35:58;2.13;;;0.77;;
9214;SDS011;4642;51.364;6.788;2022-09-09T17:38:26;2.93;;;1.03;;